createdAt,value
2019-05-03T00:02:05.328Z,101183.61
2019-05-03T00:04:37.622Z,101181.82
2019-05-03T00:07:11.686Z,101183.72
2019-05-03T00:09:43.908Z,101178.95
2019-05-03T00:12:16.257Z,101176.06
2019-05-03T00:14:48.585Z,101179.86
2019-05-03T00:17:21.875Z,101181.16
2019-05-03T00:19:54.318Z,101178.00
2019-05-03T00:22:26.558Z,101179.96
2019-05-03T00:25:07.022Z,101185.16
2019-05-03T00:27:32.802Z,101185.99
2019-05-03T00:30:05.066Z,101185.58
2019-05-03T00:32:37.336Z,101186.95
2019-05-03T00:35:09.600Z,101185.39
2019-05-03T00:37:42.048Z,101191.08
2019-05-03T00:40:14.537Z,101191.42
2019-05-03T00:42:46.790Z,101196.21
2019-05-03T00:45:19.034Z,101191.72
2019-05-03T00:47:52.738Z,101179.59
2019-05-03T00:50:25.145Z,101181.23
2019-05-03T00:52:57.388Z,101179.33
2019-05-03T00:55:29.645Z,101181.81
2019-05-03T00:58:02.530Z,101180.09
2019-05-03T01:00:34.943Z,101183.04
2019-05-03T01:03:07.231Z,101187.53
2019-05-03T01:05:39.500Z,101184.61
2019-05-03T01:08:12.671Z,101182.71
2019-05-03T01:10:45.119Z,101183.49
2019-05-03T01:13:17.621Z,101191.72
2019-05-03T01:15:51.891Z,101191.75
2019-05-03T01:18:23.688Z,101199.83
2019-05-03T01:20:55.962Z,101205.52
2019-05-03T01:23:28.380Z,101199.00
2019-05-03T01:26:02.506Z,101203.55
2019-05-03T01:28:34.954Z,101203.55
2019-05-03T01:31:07.217Z,101209.13
2019-05-03T01:33:39.714Z,101206.37
2019-05-03T01:36:12.131Z,101202.31
2019-05-03T01:38:44.672Z,101203.61
2019-05-03T01:41:17.302Z,101207.86
2019-05-03T01:43:52.685Z,101217.56
2019-05-03T01:46:25.211Z,101216.82
2019-05-03T01:48:57.573Z,101216.73
2019-05-03T01:51:29.812Z,101219.71
2019-05-03T01:54:02.196Z,101220.72
2019-05-03T01:56:34.458Z,101221.23
2019-05-03T01:59:06.758Z,101226.09
2019-05-03T02:01:39.076Z,101224.88
2019-05-03T02:04:12.242Z,101225.94
2019-05-03T02:06:44.678Z,101232.91
2019-05-03T02:09:16.964Z,101234.98
2019-05-03T02:11:49.214Z,101226.33
2019-05-03T02:14:22.156Z,101222.52
2019-05-03T02:16:56.885Z,101224.59
2019-05-03T02:19:29.160Z,101222.34
2019-05-03T02:22:02.835Z,101220.77
2019-05-03T02:24:35.323Z,101227.82
2019-05-03T02:27:08.827Z,101221.89
2019-05-03T02:29:41.865Z,101227.44
2019-05-03T02:32:14.370Z,101223.38
2019-05-03T02:34:46.692Z,101226.18
2019-05-03T02:37:18.966Z,101224.63
2019-05-03T02:39:53.139Z,101231.04
2019-05-03T02:42:26.527Z,101226.28
2019-05-03T02:45:00.125Z,101229.05
2019-05-03T02:47:32.362Z,101234.99
2019-05-03T02:50:05.823Z,101234.06
2019-05-03T02:52:38.348Z,101235.30
2019-05-03T02:55:10.611Z,101235.91
2019-05-03T02:57:46.233Z,101237.78
2019-05-03T03:00:16.946Z,101237.33
2019-05-03T03:02:49.219Z,101233.35
2019-05-03T03:05:21.486Z,101237.25
2019-05-03T03:07:55.848Z,101239.85
2019-05-03T03:10:27.751Z,101236.52
2019-05-03T03:13:00.133Z,101241.73
2019-05-03T03:15:32.379Z,101239.58
2019-05-03T03:18:06.299Z,101239.27
2019-05-03T03:20:38.839Z,101236.46
2019-05-03T03:23:14.525Z,101239.38
2019-05-03T03:25:46.206Z,101248.15
2019-05-03T03:28:18.788Z,101245.19
2019-05-03T03:30:51.058Z,101246.45
2019-05-03T03:33:27.688Z,101251.64
2019-05-03T03:36:07.284Z,101238.52
2019-05-03T03:38:31.262Z,101245.83
2019-05-03T03:41:05.888Z,101246.72
2019-05-03T03:43:37.463Z,101250.27
2019-05-03T03:46:09.800Z,101248.28
2019-05-03T03:48:42.206Z,101251.69
2019-05-03T03:51:15.516Z,101256.34
2019-05-03T03:53:48.314Z,101259.68
2019-05-03T03:56:21.142Z,101261.76
2019-05-03T03:58:55.604Z,101273.98
2019-05-03T04:01:27.543Z,101274.16
2019-05-03T04:03:59.798Z,101277.62
2019-05-03T04:06:32.097Z,101281.77
2019-05-03T04:09:05.208Z,101288.06
2019-05-03T04:11:38.903Z,101281.92
2019-05-03T04:14:11.295Z,101287.41
2019-05-03T04:16:45.444Z,101296.14
2019-05-03T04:19:17.655Z,101296.34
2019-05-03T04:21:49.886Z,101301.27
2019-05-03T04:24:22.414Z,101300.61
2019-05-03T04:26:56.306Z,101302.10
2019-05-03T04:29:28.829Z,101300.12
2019-05-03T04:32:01.128Z,101305.80
2019-05-03T04:34:35.687Z,101309.14
2019-05-03T04:37:07.353Z,101303.59
2019-05-03T04:39:40.691Z,101306.58
2019-05-03T04:42:16.158Z,101314.47
2019-05-03T04:44:47.259Z,101312.95
2019-05-03T04:47:20.573Z,101320.39
2019-05-03T04:49:55.291Z,101321.59
2019-05-03T04:52:26.869Z,101324.13
2019-05-03T04:54:59.101Z,101329.88
2019-05-03T04:57:40.691Z,101333.89
2019-05-03T05:00:07.061Z,101337.09
2019-05-03T05:02:39.435Z,101332.75
2019-05-03T05:05:11.715Z,101337.14
2019-05-03T05:07:45.611Z,101335.27
2019-05-03T05:10:18.273Z,101339.91
2019-05-03T05:12:50.615Z,101345.32
2019-05-03T05:15:22.997Z,101342.72
2019-05-03T05:17:56.267Z,101346.67
2019-05-03T05:20:28.743Z,101346.46
2019-05-03T05:23:01.129Z,101346.34
2019-05-03T05:25:35.381Z,101348.38
2019-05-03T05:28:07.473Z,101352.11
2019-05-03T05:30:39.702Z,101357.68
2019-05-03T05:33:11.901Z,101360.73
2019-05-03T05:35:44.379Z,101358.29
2019-05-03T05:38:16.645Z,101366.45
2019-05-03T05:40:48.876Z,101371.84
2019-05-03T05:43:21.181Z,101369.48
2019-05-03T05:45:55.183Z,101369.54
2019-05-03T05:48:27.322Z,101370.85
2019-05-03T05:50:59.641Z,101374.15
2019-05-03T05:53:32.062Z,101368.38
2019-05-03T05:56:05.023Z,101368.09
2019-05-03T05:58:37.347Z,101373.27
2019-05-03T06:01:09.800Z,101372.89
2019-05-03T06:03:42.245Z,101375.83
2019-05-03T06:06:15.309Z,101378.98
2019-05-03T06:08:47.729Z,101386.38
2019-05-03T06:11:19.946Z,101379.05
2019-05-03T06:13:52.293Z,101377.94
2019-05-03T06:16:24.683Z,101380.27
2019-05-03T06:18:57.982Z,101388.00
2019-05-03T06:21:30.457Z,101375.89
2019-05-03T06:24:04.439Z,101383.63
2019-05-03T06:26:36.820Z,101392.58
2019-05-03T06:29:09.054Z,101385.92
2019-05-03T06:31:41.353Z,101380.23
2019-05-03T06:34:15.000Z,101383.33
2019-05-03T06:36:47.369Z,101379.58
2019-05-03T06:39:19.722Z,101377.25
2019-05-03T06:41:52.260Z,101382.43
2019-05-03T06:44:28.516Z,101386.06
2019-05-03T06:47:00.992Z,101384.77
2019-05-03T06:49:34.459Z,101391.69
2019-05-03T06:52:06.425Z,101392.02
2019-05-03T06:54:38.652Z,101384.94
2019-05-03T06:57:10.858Z,101387.88
2019-05-03T06:59:45.174Z,101395.22
2019-05-03T07:02:17.316Z,101390.38
2019-05-03T07:04:49.577Z,101392.07
2019-05-03T07:07:22.387Z,101400.77
2019-05-03T07:09:54.731Z,101388.30
2019-05-03T07:12:27.171Z,101393.93
2019-05-03T07:14:59.411Z,101393.00
2019-05-03T07:17:31.990Z,101402.02
2019-05-03T07:20:05.567Z,101400.73
2019-05-03T07:22:38.011Z,101401.09
2019-05-03T07:25:10.263Z,101410.34
2019-05-03T07:27:42.699Z,101406.16
2019-05-03T07:30:15.651Z,101408.47
2019-05-03T07:32:47.930Z,101412.74
2019-05-03T07:35:22.233Z,101408.26
2019-05-03T07:37:55.305Z,101403.02
2019-05-03T07:40:27.823Z,101402.58
2019-05-03T07:43:00.060Z,101394.00
2019-05-03T07:45:32.291Z,101395.38
2019-05-03T07:48:04.701Z,101390.81
2019-05-03T07:50:37.101Z,101393.48
2019-05-03T07:53:09.352Z,101395.01
2019-05-03T07:55:41.571Z,101393.81
2019-05-03T07:58:15.014Z,101394.93
2019-05-03T08:00:47.407Z,101388.33
2019-05-03T08:03:19.784Z,101394.03
2019-05-03T08:05:52.044Z,101392.84
2019-05-03T08:08:26.561Z,101392.64
2019-05-03T08:10:58.877Z,101390.05
2019-05-03T08:13:31.321Z,101388.12
2019-05-03T08:16:05.660Z,101390.80
2019-05-03T08:18:37.547Z,101388.70
2019-05-03T08:21:09.838Z,101392.94
2019-05-03T08:23:42.062Z,101392.44
2019-05-03T08:26:15.309Z,101398.90
2019-05-03T08:28:47.713Z,101392.97
2019-05-03T08:31:20.008Z,101393.06
2019-05-03T08:33:55.372Z,101393.83
2019-05-03T08:36:27.803Z,101392.14
2019-05-03T08:39:00.026Z,101394.13
2019-05-03T08:41:32.310Z,101389.59
2019-05-03T08:44:05.225Z,101375.72
2019-05-03T08:46:37.503Z,101375.41
2019-05-03T08:49:09.828Z,101376.59
2019-05-03T08:51:44.345Z,101375.99
2019-05-03T08:54:16.194Z,101375.20
2019-05-03T08:56:48.405Z,101375.85
2019-05-03T08:59:29.712Z,101374.36
2019-05-03T09:01:55.052Z,101373.01
2019-05-03T09:04:36.256Z,101369.94
2019-05-03T09:07:01.457Z,101366.06
2019-05-03T09:09:34.871Z,101373.41
2019-05-03T09:12:07.330Z,101360.27
2019-05-03T09:14:45.475Z,101362.86
2019-05-03T09:17:15.290Z,101366.34
2019-05-03T09:19:47.689Z,101364.52
2019-05-03T09:22:19.989Z,101361.71
2019-05-03T09:24:54.046Z,101366.88
2019-05-03T09:27:26.250Z,101368.16
2019-05-03T09:29:58.459Z,101361.52
2019-05-03T09:32:30.752Z,101366.92
2019-05-03T09:35:02.959Z,101363.33
2019-05-03T09:37:35.469Z,101368.86
2019-05-03T09:40:07.675Z,101376.30
2019-05-03T09:42:39.880Z,101375.72
2019-05-03T09:45:12.245Z,101367.98
2019-05-03T09:47:44.917Z,101366.69
2019-05-03T09:50:17.258Z,101369.31
2019-05-03T09:52:49.828Z,101372.37
2019-05-03T09:55:22.117Z,101371.46
2019-05-03T09:57:55.529Z,101368.86
2019-05-03T10:00:28.985Z,101369.50
2019-05-03T10:03:01.269Z,101359.14
2019-05-03T10:05:35.080Z,101366.78
2019-05-03T10:08:07.778Z,101363.42
2019-05-03T10:10:40.313Z,101357.55
2019-05-03T10:13:16.687Z,101359.36
2019-05-03T10:15:46.623Z,101358.98
2019-05-03T10:18:18.843Z,101367.69
2019-05-03T10:20:51.064Z,101356.27
2019-05-03T10:23:24.813Z,101365.47
2019-05-03T10:25:57.207Z,101352.91
2019-05-03T10:28:29.589Z,101358.84
2019-05-03T10:31:04.831Z,101360.47
2019-05-03T10:33:37.180Z,101364.94
2019-05-03T10:36:09.416Z,101357.38
2019-05-03T10:38:41.918Z,101356.31
2019-05-03T10:41:14.250Z,101360.15
2019-05-03T10:43:47.453Z,101356.95
2019-05-03T10:46:19.718Z,101355.08
2019-05-03T10:48:52.009Z,101348.90
2019-05-03T10:51:24.823Z,101344.82
2019-05-03T10:53:57.264Z,101346.46
2019-05-03T10:56:29.611Z,101342.11
2019-05-03T10:59:02.070Z,101349.09
2019-05-03T11:01:35.890Z,101352.71
2019-05-03T11:04:09.472Z,101346.19
2019-05-03T11:06:41.789Z,101345.90
2019-05-03T11:09:15.250Z,101340.89
2019-05-03T11:11:47.959Z,101343.52
2019-05-03T11:14:20.562Z,101342.41
2019-05-03T11:16:55.058Z,101347.08
2019-05-03T11:19:26.763Z,101338.52
2019-05-03T11:21:59.037Z,101351.17
2019-05-03T11:24:31.241Z,101343.29
2019-05-03T11:27:03.506Z,101342.35
2019-05-03T11:29:35.795Z,101346.69
2019-05-03T11:32:11.020Z,101351.42
2019-05-03T11:34:44.933Z,101343.86
2019-05-03T11:37:17.381Z,101345.48
2019-05-03T11:39:49.641Z,101338.92
2019-05-03T11:42:21.887Z,101337.34
2019-05-03T11:44:54.103Z,101336.56
2019-05-03T11:47:27.694Z,101336.66
2019-05-03T11:50:00.086Z,101319.51
2019-05-03T11:52:32.358Z,101325.46
2019-05-03T11:55:10.939Z,101322.00
2019-05-03T11:57:38.589Z,101334.39
2019-05-03T12:00:10.821Z,101334.95
2019-05-03T12:02:44.785Z,101340.00
2019-05-03T12:05:17.547Z,101333.58
2019-05-03T12:07:49.818Z,101333.48
2019-05-03T12:10:43.471Z,101339.11
2019-05-03T12:12:56.196Z,101341.14
2019-05-03T12:15:28.491Z,101339.16
2019-05-03T12:18:01.374Z,101345.14
2019-05-03T12:20:36.335Z,101337.15
2019-05-03T12:23:08.551Z,101340.75
2019-05-03T12:25:42.047Z,101335.23
2019-05-03T12:28:15.381Z,101344.05
2019-05-03T12:30:48.708Z,101341.14
2019-05-03T12:33:20.971Z,101330.19
2019-05-03T12:35:55.158Z,101336.44
2019-05-03T12:38:27.204Z,101331.86
2019-05-03T12:40:59.463Z,101331.25
2019-05-03T12:43:31.689Z,101331.95
2019-05-03T12:46:06.200Z,101328.55
2019-05-03T12:48:38.505Z,101331.73
2019-05-03T12:51:11.235Z,101328.34
2019-05-03T12:53:44.093Z,101328.23
2019-05-03T12:56:23.394Z,101330.53
2019-05-03T12:58:50.370Z,101334.93
2019-05-03T13:01:24.949Z,101338.91
2019-05-03T13:03:56.609Z,101342.95
2019-05-03T13:06:29.232Z,101329.58
2019-05-03T13:09:01.458Z,101331.20
2019-05-03T13:11:36.595Z,101325.66
2019-05-03T13:14:09.354Z,101318.89
2019-05-03T13:16:41.733Z,101318.70
2019-05-03T13:19:15.207Z,101317.75
2019-05-03T13:21:47.670Z,101321.08
2019-05-03T13:24:23.246Z,101321.28
2019-05-03T13:26:53.905Z,101320.31
2019-05-03T13:29:28.508Z,101319.64
2019-05-03T13:32:02.240Z,101317.09
2019-05-03T13:34:35.385Z,101316.13
2019-05-03T13:37:07.905Z,101315.02
2019-05-03T13:39:40.146Z,101313.26
2019-05-03T13:42:12.381Z,101313.73
2019-05-03T13:44:44.985Z,101313.75
2019-05-03T13:47:17.305Z,101306.02
2019-05-03T13:49:51.585Z,101303.88
2019-05-03T13:52:25.100Z,101304.34
2019-05-03T13:54:57.331Z,101311.06
2019-05-03T13:57:29.641Z,101307.98
2019-05-03T14:00:01.914Z,101305.30
2019-05-03T14:02:35.767Z,101297.28
2019-05-03T14:05:08.210Z,101290.44
2019-05-03T14:07:40.522Z,101294.95
2019-05-03T14:10:12.741Z,101291.94
2019-05-03T14:12:45.533Z,101286.77
2019-05-03T14:15:17.937Z,101292.98
2019-05-03T14:17:50.004Z,101288.16
2019-05-03T14:20:23.373Z,101286.02
2019-05-03T14:22:55.611Z,101288.45
2019-05-03T14:25:28.908Z,101283.27
2019-05-03T14:28:01.130Z,101282.92
2019-05-03T14:30:34.683Z,101287.35
2019-05-03T14:33:07.052Z,101296.31
2019-05-03T14:35:39.263Z,101298.74
2019-05-03T14:38:11.852Z,101285.56
2019-05-03T14:40:44.873Z,101279.19
2019-05-03T14:43:18.067Z,101286.37
2019-05-03T14:45:50.316Z,101282.16
2019-05-03T14:48:24.646Z,101279.00
2019-05-03T14:50:57.457Z,101279.73
2019-05-03T14:53:30.063Z,101282.45
2019-05-03T14:56:02.590Z,101275.86
2019-05-03T14:58:35.302Z,101274.56
2019-05-03T15:01:07.717Z,101276.34
2019-05-03T15:03:39.959Z,101274.06
2019-05-03T15:06:12.189Z,101270.35
2019-05-03T15:08:44.421Z,101269.14
2019-05-03T15:11:16.704Z,101264.11
2019-05-03T15:13:48.918Z,101260.23
2019-05-03T15:16:21.165Z,101264.55
2019-05-03T15:18:54.852Z,101261.47
2019-05-03T15:21:27.258Z,101257.48
2019-05-03T15:23:59.552Z,101257.30
2019-05-03T15:26:31.765Z,101257.29
2019-05-03T15:29:04.863Z,101252.57
2019-05-03T15:31:37.339Z,101254.91
2019-05-03T15:34:09.782Z,101248.95
2019-05-03T15:36:42.080Z,101246.20
2019-05-03T15:39:15.381Z,101239.27
2019-05-03T15:41:49.851Z,101241.10
2019-05-03T15:44:22.111Z,101243.66
2019-05-03T15:46:54.590Z,101250.14
2019-05-03T15:49:27.696Z,101251.27
2019-05-03T15:52:00.315Z,101250.02
2019-05-03T15:54:32.532Z,101247.16
2019-05-03T15:57:05.132Z,101248.45
2019-05-03T15:59:37.644Z,101244.78
2019-05-03T16:02:09.956Z,101240.71
2019-05-03T16:04:42.498Z,101237.56
2019-05-03T16:07:14.721Z,101235.45
2019-05-03T16:09:47.328Z,101233.54
2019-05-03T16:12:19.742Z,101227.38
2019-05-03T16:14:52.084Z,101230.63
2019-05-03T16:17:24.565Z,101232.17
2019-05-03T16:19:56.754Z,101226.47
2019-05-03T16:22:28.906Z,101234.40
2019-05-03T16:25:01.375Z,101222.33
2019-05-03T16:27:33.710Z,101215.75
2019-05-03T16:30:05.984Z,101216.11
2019-05-03T16:32:38.074Z,101212.97
2019-05-03T16:35:10.340Z,101213.80
2019-05-03T16:37:46.676Z,101215.05
2019-05-03T16:40:19.199Z,101218.78
2019-05-03T16:42:53.779Z,101217.97
2019-05-03T16:45:26.019Z,101219.60
2019-05-03T16:47:58.334Z,101229.33
2019-05-03T16:50:32.263Z,101217.86
2019-05-03T16:53:05.565Z,101220.12
2019-05-03T16:55:38.109Z,101214.75
2019-05-03T16:58:10.388Z,101218.53
2019-05-03T17:00:44.608Z,101216.44
2019-05-03T17:03:17.231Z,101217.39
2019-05-03T17:05:49.646Z,101210.55
2019-05-03T17:08:21.862Z,101210.23
2019-05-03T17:10:54.468Z,101213.44
2019-05-03T17:13:28.527Z,101205.83
2019-05-03T17:16:00.730Z,101206.98
2019-05-03T17:18:35.120Z,101209.89
2019-05-03T17:21:07.152Z,101205.53
2019-05-03T17:23:39.658Z,101210.31
2019-05-03T17:26:11.954Z,101202.73
2019-05-03T17:28:44.745Z,101208.65
2019-05-03T17:31:17.148Z,101205.09
2019-05-03T17:33:53.650Z,101197.55
2019-05-03T17:36:25.023Z,101202.59
2019-05-03T17:38:58.551Z,101209.79
2019-05-03T17:41:30.841Z,101209.02
2019-05-03T17:44:04.966Z,101207.16
2019-05-03T17:46:37.298Z,101201.86
2019-05-03T17:49:09.671Z,101202.94
2019-05-03T17:51:42.118Z,101207.16
2019-05-03T17:54:14.570Z,101207.75
2019-05-03T17:56:46.758Z,101207.86
2019-05-03T17:59:19.090Z,101205.59
2019-05-03T18:01:51.366Z,101210.23
2019-05-03T18:04:24.834Z,101204.02
2019-05-03T18:06:57.132Z,101196.98
2019-05-03T18:09:29.570Z,101199.19
2019-05-03T18:12:01.769Z,101198.30
2019-05-03T18:14:34.502Z,101195.58
2019-05-03T18:17:06.995Z,101197.18
2019-05-03T18:19:39.211Z,101197.11
2019-05-03T18:22:11.258Z,101194.73
2019-05-03T18:24:45.477Z,101198.63
2019-05-03T18:27:17.758Z,101197.11
2019-05-03T18:29:49.968Z,101189.52
2019-05-03T18:32:22.368Z,101193.28
2019-05-03T18:34:54.803Z,101193.72
2019-05-03T18:37:28.084Z,101197.36
2019-05-03T18:40:00.392Z,101196.09
2019-05-03T18:42:32.725Z,101189.95
2019-05-03T18:45:04.951Z,101193.73
2019-05-03T18:47:37.252Z,101191.77
2019-05-03T18:50:09.452Z,101183.13
2019-05-03T18:52:44.833Z,101194.68
2019-05-03T18:55:16.946Z,101197.66
2019-05-03T18:57:49.222Z,101199.08
2019-05-03T19:00:21.426Z,101199.52
2019-05-03T19:02:54.600Z,101190.55
2019-05-03T19:05:26.941Z,101190.50
2019-05-03T19:07:59.210Z,101195.08
2019-05-03T19:10:31.435Z,101195.77
2019-05-03T19:13:04.699Z,101192.89
2019-05-03T19:15:37.230Z,101194.75
2019-05-03T19:18:09.488Z,101194.95
2019-05-03T19:20:41.715Z,101200.81
2019-05-03T19:23:15.432Z,101198.62
2019-05-03T19:25:49.558Z,101196.70
2019-05-03T19:28:21.750Z,101195.80
2019-05-03T19:30:55.191Z,101192.73
2019-05-03T19:33:27.503Z,101193.54
2019-05-03T19:36:00.308Z,101191.84
2019-05-03T19:38:32.757Z,101195.00
2019-05-03T19:41:05.088Z,101196.02
2019-05-03T19:43:38.383Z,101197.56
2019-05-03T19:46:10.671Z,101194.98
2019-05-03T19:48:42.929Z,101200.84
2019-05-03T19:51:15.156Z,101200.63
2019-05-03T19:53:47.414Z,101207.65
2019-05-03T19:56:20.822Z,101200.22
2019-05-03T19:58:55.238Z,101200.44
2019-05-03T20:01:27.563Z,101186.03
2019-05-03T20:03:59.753Z,101187.87
2019-05-03T20:06:32.015Z,101194.08
2019-05-03T20:09:04.203Z,101186.03
2019-05-03T20:11:37.245Z,101182.68
2019-05-03T20:14:09.466Z,101187.24
2019-05-03T20:16:41.695Z,101191.27
2019-05-03T20:19:18.957Z,101184.23
2019-05-03T20:21:47.907Z,101191.89
2019-05-03T20:24:20.164Z,101189.08
2019-05-03T20:26:52.375Z,101186.39
2019-05-03T20:29:25.114Z,101180.89
2019-05-03T20:31:57.624Z,101179.86
2019-05-03T20:34:30.020Z,101184.42
2019-05-03T20:37:02.242Z,101177.22
2019-05-03T20:39:34.864Z,101175.16
2019-05-03T20:42:07.277Z,101176.67
2019-05-03T20:44:39.818Z,101175.38
2019-05-03T20:47:14.929Z,101171.62
2019-05-03T20:49:47.419Z,101168.83
2019-05-03T20:52:19.602Z,101163.75
2019-05-03T20:54:51.822Z,101159.27
2019-05-03T20:57:24.752Z,101166.30
2019-05-03T20:59:56.979Z,101169.48
2019-05-03T21:02:29.215Z,101161.70
2019-05-03T21:05:01.443Z,101171.53
2019-05-03T21:07:35.174Z,101164.10
2019-05-03T21:10:07.440Z,101165.89
2019-05-03T21:12:39.733Z,101165.27
2019-05-03T21:15:12.049Z,101160.20
2019-05-03T21:17:45.067Z,101166.42
2019-05-03T21:20:17.656Z,101162.61
2019-05-03T21:22:49.893Z,101161.50
2019-05-03T21:25:22.214Z,101162.39
2019-05-03T21:27:55.523Z,101162.47
2019-05-03T21:30:27.892Z,101165.07
2019-05-03T21:33:00.102Z,101159.88
2019-05-03T21:35:39.409Z,101163.09
2019-05-03T21:38:06.457Z,101163.77
2019-05-03T21:40:38.666Z,101160.75
2019-05-03T21:43:10.875Z,101156.86
2019-05-03T21:45:45.332Z,101154.81
2019-05-03T21:48:19.680Z,101151.64
2019-05-03T21:50:51.942Z,101154.72
2019-05-03T21:53:25.100Z,101156.69
2019-05-03T21:55:57.433Z,101151.91
2019-05-03T21:58:30.181Z,101153.96
2019-05-03T22:01:02.428Z,101144.20
2019-05-03T22:03:36.258Z,101142.78
2019-05-03T22:06:09.541Z,101133.34
2019-05-03T22:08:41.793Z,101133.30
2019-05-03T22:11:14.875Z,101126.54
2019-05-03T22:13:47.258Z,101118.59
2019-05-03T22:16:19.738Z,101104.95
2019-05-03T22:18:51.954Z,101110.89
2019-05-03T22:21:24.074Z,101108.24
2019-05-03T22:23:56.387Z,101111.45
2019-05-03T22:26:28.586Z,101113.16
2019-05-03T22:29:00.848Z,101109.81
2019-05-03T22:31:34.939Z,101107.00
2019-05-03T22:34:07.031Z,101108.52
2019-05-03T22:36:39.399Z,101111.03
2019-05-03T22:39:11.786Z,101105.92
2019-05-03T22:41:45.170Z,101106.91
2019-05-03T22:44:17.389Z,101106.59
2019-05-03T22:46:49.622Z,101101.19
2019-05-03T22:49:21.885Z,101100.59
2019-05-03T22:51:54.441Z,101094.56
2019-05-03T22:54:26.725Z,101097.92
2019-05-03T22:56:59.201Z,101093.08
2019-05-03T22:59:34.583Z,101096.62
2019-05-03T23:02:06.932Z,101092.81
2019-05-03T23:04:39.147Z,101087.47
2019-05-03T23:07:11.459Z,101080.80
2019-05-03T23:09:44.635Z,101086.47
2019-05-03T23:12:17.016Z,101091.71
2019-05-03T23:14:49.444Z,101092.78
2019-05-03T23:17:21.734Z,101096.27
2019-05-03T23:19:54.021Z,101088.49
2019-05-03T23:22:26.412Z,101094.66
2019-05-03T23:24:58.882Z,101094.30
2019-05-03T23:27:31.143Z,101094.70
2019-05-03T23:30:04.962Z,101097.84
2019-05-03T23:32:37.365Z,101095.78
2019-05-03T23:35:09.567Z,101102.44
2019-05-03T23:37:41.851Z,101113.17
2019-05-03T23:40:14.818Z,101122.64
2019-05-03T23:42:47.230Z,101134.68
2019-05-03T23:45:19.504Z,101123.59
2019-05-03T23:47:51.736Z,101119.28
2019-05-03T23:50:24.873Z,101111.20
2019-05-03T23:52:57.382Z,101107.48
2019-05-03T23:55:29.620Z,101094.39
2019-05-03T23:58:01.882Z,101087.41
